sensor_id;sensor_type;location;lat;lon;timestamp;P1;durP1;ratioP1;P2;durP2;ratioP2
44452;SDS011;30155;52.164;21.236;2023-03-05T00:00:31;11.60;;;6.10;;
44452;SDS011;30155;52.164;21.236;2023-03-05T00:05:43;9.80;;;4.90;;
44452;SDS011;30155;52.164;21.236;2023-03-05T00:16:25;9.30;;;4.30;;
44452;SDS011;30155;52.164;21.236;2023-03-05T00:21:42;14.30;;;4.30;;
44452;SDS011;30155;52.164;21.236;2023-03-05T00:26:36;7.10;;;4.20;;
44452;SDS011;30155;52.164;21.236;2023-03-05T00:32:02;8.50;;;4.90;;
44452;SDS011;30155;52.164;21.236;2023-03-05T00:37:48;11.80;;;5.30;;
44452;SDS011;30155;52.164;21.236;2023-03-05T00:43:02;8.30;;;4.10;;
44452;SDS011;30155;52.164;21.236;2023-03-05T00:48:41;12.00;;;5.40;;
44452;SDS011;30155;52.164;21.236;2023-03-05T00:54:02;10.40;;;6.10;;
44452;SDS011;30155;52.164;21.236;2023-03-05T00:59:05;10.40;;;5.00;;
44452;SDS011;30155;52.164;21.236;2023-03-05T01:04:12;12.80;;;5.50;;
44452;SDS011;30155;52.164;21.236;2023-03-05T01:09:29;13.90;;;6.80;;
44452;SDS011;30155;52.164;21.236;2023-03-05T01:15:03;15.30;;;5.80;;
44452;SDS011;30155;52.164;21.236;2023-03-05T01:20:21;10.10;;;5.30;;
44452;SDS011;30155;52.164;21.236;2023-03-05T01:25:30;12.60;;;5.70;;
44452;SDS011;30155;52.164;21.236;2023-03-05T01:30:25;12.60;;;5.40;;
44452;SDS011;30155;52.164;21.236;2023-03-05T01:35:26;11.60;;;6.80;;
44452;SDS011;30155;52.164;21.236;2023-03-05T01:40:28;12.20;;;5.60;;
44452;SDS011;30155;52.164;21.236;2023-03-05T01:45:29;12.40;;;6.10;;
44452;SDS011;30155;52.164;21.236;2023-03-05T01:50:34;16.60;;;6.40;;
44452;SDS011;30155;52.164;21.236;2023-03-05T01:55:54;10.10;;;6.20;;
44452;SDS011;30155;52.164;21.236;2023-03-05T02:01:11;11.00;;;7.10;;
44452;SDS011;30155;52.164;21.236;2023-03-05T02:06:15;12.30;;;5.30;;
44452;SDS011;30155;52.164;21.236;2023-03-05T02:11:47;12.40;;;6.00;;
44452;SDS011;30155;52.164;21.236;2023-03-05T02:17:00;12.50;;;5.40;;
44452;SDS011;30155;52.164;21.236;2023-03-05T02:22:00;12.20;;;7.10;;
44452;SDS011;30155;52.164;21.236;2023-03-05T02:27:02;11.90;;;5.60;;
44452;SDS011;30155;52.164;21.236;2023-03-05T02:31:59;12.70;;;5.50;;
44452;SDS011;30155;52.164;21.236;2023-03-05T02:37:01;11.90;;;5.30;;
44452;SDS011;30155;52.164;21.236;2023-03-05T02:41:56;12.30;;;5.70;;
44452;SDS011;30155;52.164;21.236;2023-03-05T02:46:59;10.20;;;5.20;;
44452;SDS011;30155;52.164;21.236;2023-03-05T02:51:52;11.50;;;4.80;;
44452;SDS011;30155;52.164;21.236;2023-03-05T02:56:45;14.20;;;6.70;;
44452;SDS011;30155;52.164;21.236;2023-03-05T03:01:38;11.10;;;5.40;;
44452;SDS011;30155;52.164;21.236;2023-03-05T03:06:31;12.40;;;6.30;;
44452;SDS011;30155;52.164;21.236;2023-03-05T03:11:24;9.70;;;5.10;;
44452;SDS011;30155;52.164;21.236;2023-03-05T03:16:17;12.00;;;5.30;;
44452;SDS011;30155;52.164;21.236;2023-03-05T03:21:15;14.00;;;6.20;;
44452;SDS011;30155;52.164;21.236;2023-03-05T03:26:10;11.70;;;5.60;;
44452;SDS011;30155;52.164;21.236;2023-03-05T03:31:03;10.70;;;6.20;;
44452;SDS011;30155;52.164;21.236;2023-03-05T03:35:59;18.00;;;7.20;;
44452;SDS011;30155;52.164;21.236;2023-03-05T03:40:52;15.40;;;6.00;;
44452;SDS011;30155;52.164;21.236;2023-03-05T03:45:45;14.10;;;6.50;;
44452;SDS011;30155;52.164;21.236;2023-03-05T03:50:41;11.60;;;5.90;;
44452;SDS011;30155;52.164;21.236;2023-03-05T03:55:35;14.00;;;6.80;;
44452;SDS011;30155;52.164;21.236;2023-03-05T04:00:28;11.80;;;6.90;;
44452;SDS011;30155;52.164;21.236;2023-03-05T04:05:21;17.10;;;7.40;;
44452;SDS011;30155;52.164;21.236;2023-03-05T04:10:13;12.30;;;5.40;;
44452;SDS011;30155;52.164;21.236;2023-03-05T04:15:06;16.00;;;6.30;;
44452;SDS011;30155;52.164;21.236;2023-03-05T04:20:01;13.40;;;7.30;;
44452;SDS011;30155;52.164;21.236;2023-03-05T04:24:56;12.30;;;6.80;;
44452;SDS011;30155;52.164;21.236;2023-03-05T04:30:12;12.80;;;6.30;;
44452;SDS011;30155;52.164;21.236;2023-03-05T04:35:59;9.30;;;5.50;;
44452;SDS011;30155;52.164;21.236;2023-03-05T04:40:51;13.90;;;5.40;;
44452;SDS011;30155;52.164;21.236;2023-03-05T04:45:44;11.70;;;7.40;;
44452;SDS011;30155;52.164;21.236;2023-03-05T04:50:37;15.90;;;6.60;;
44452;SDS011;30155;52.164;21.236;2023-03-05T04:55:30;14.20;;;6.30;;
44452;SDS011;30155;52.164;21.236;2023-03-05T05:00:24;10.10;;;5.60;;
44452;SDS011;30155;52.164;21.236;2023-03-05T05:05:18;9.20;;;5.20;;
44452;SDS011;30155;52.164;21.236;2023-03-05T05:10:15;12.70;;;5.80;;
44452;SDS011;30155;52.164;21.236;2023-03-05T05:15:08;13.00;;;6.20;;
44452;SDS011;30155;52.164;21.236;2023-03-05T05:20:03;12.80;;;5.90;;
44452;SDS011;30155;52.164;21.236;2023-03-05T05:24:58;13.20;;;6.30;;
44452;SDS011;30155;52.164;21.236;2023-03-05T05:29:51;14.50;;;6.10;;
44452;SDS011;30155;52.164;21.236;2023-03-05T05:34:45;14.70;;;6.60;;
44452;SDS011;30155;52.164;21.236;2023-03-05T05:39:37;16.60;;;7.50;;
44452;SDS011;30155;52.164;21.236;2023-03-05T05:44:30;15.30;;;8.00;;
44452;SDS011;30155;52.164;21.236;2023-03-05T05:49:25;12.40;;;6.90;;
44452;SDS011;30155;52.164;21.236;2023-03-05T05:54:18;15.40;;;7.30;;
44452;SDS011;30155;52.164;21.236;2023-03-05T05:59:11;16.00;;;7.90;;
44452;SDS011;30155;52.164;21.236;2023-03-05T06:04:04;16.60;;;7.90;;
44452;SDS011;30155;52.164;21.236;2023-03-05T06:08:57;15.40;;;7.50;;
44452;SDS011;30155;52.164;21.236;2023-03-05T06:13:50;14.90;;;7.40;;
44452;SDS011;30155;52.164;21.236;2023-03-05T06:18:43;8.60;;;5.00;;
44452;SDS011;30155;52.164;21.236;2023-03-05T06:23:38;12.00;;;5.50;;
44452;SDS011;30155;52.164;21.236;2023-03-05T06:28:34;13.90;;;6.00;;
44452;SDS011;30155;52.164;21.236;2023-03-05T06:33:27;6.90;;;4.40;;
44452;SDS011;30155;52.164;21.236;2023-03-05T06:38:21;10.10;;;5.20;;
44452;SDS011;30155;52.164;21.236;2023-03-05T06:43:14;9.80;;;5.30;;
44452;SDS011;30155;52.164;21.236;2023-03-05T06:48:10;10.30;;;4.40;;
44452;SDS011;30155;52.164;21.236;2023-03-05T06:53:03;5.80;;;3.50;;
44452;SDS011;30155;52.164;21.236;2023-03-05T06:57:56;6.60;;;3.40;;
44452;SDS011;30155;52.164;21.236;2023-03-05T07:02:49;6.40;;;3.50;;
44452;SDS011;30155;52.164;21.236;2023-03-05T07:07:42;9.00;;;3.90;;
44452;SDS011;30155;52.164;21.236;2023-03-05T07:12:35;7.60;;;3.10;;
44452;SDS011;30155;52.164;21.236;2023-03-05T07:17:29;7.10;;;3.60;;
44452;SDS011;30155;52.164;21.236;2023-03-05T07:22:21;7.10;;;3.80;;
44452;SDS011;30155;52.164;21.236;2023-03-05T07:27:14;6.70;;;3.60;;
44452;SDS011;30155;52.164;21.236;2023-03-05T07:32:07;8.60;;;3.50;;
44452;SDS011;30155;52.164;21.236;2023-03-05T07:37:01;7.30;;;3.30;;
44452;SDS011;30155;52.164;21.236;2023-03-05T07:41:53;7.70;;;3.70;;
44452;SDS011;30155;52.164;21.236;2023-03-05T07:46:50;6.90;;;3.50;;
44452;SDS011;30155;52.164;21.236;2023-03-05T07:51:43;9.20;;;3.70;;
44452;SDS011;30155;52.164;21.236;2023-03-05T07:56:36;6.90;;;3.30;;
44452;SDS011;30155;52.164;21.236;2023-03-05T08:01:29;5.50;;;2.30;;
44452;SDS011;30155;52.164;21.236;2023-03-05T08:06:22;4.80;;;2.70;;
44452;SDS011;30155;52.164;21.236;2023-03-05T08:11:16;6.00;;;3.10;;
44452;SDS011;30155;52.164;21.236;2023-03-05T08:16:15;4.30;;;2.40;;
44452;SDS011;30155;52.164;21.236;2023-03-05T08:21:17;6.10;;;3.20;;
44452;SDS011;30155;52.164;21.236;2023-03-05T08:26:13;6.60;;;2.90;;
44452;SDS011;30155;52.164;21.236;2023-03-05T08:31:07;5.90;;;3.20;;
44452;SDS011;30155;52.164;21.236;2023-03-05T08:36:03;8.60;;;3.90;;
44452;SDS011;30155;52.164;21.236;2023-03-05T08:40:56;5.60;;;2.80;;
44452;SDS011;30155;52.164;21.236;2023-03-05T08:45:49;7.00;;;2.60;;
44452;SDS011;30155;52.164;21.236;2023-03-05T08:50:44;5.30;;;2.80;;
44452;SDS011;30155;52.164;21.236;2023-03-05T08:55:36;4.60;;;2.30;;
44452;SDS011;30155;52.164;21.236;2023-03-05T09:00:29;7.00;;;3.10;;
44452;SDS011;30155;52.164;21.236;2023-03-05T09:05:22;6.80;;;3.50;;
44452;SDS011;30155;52.164;21.236;2023-03-05T09:10:15;8.00;;;4.10;;
44452;SDS011;30155;52.164;21.236;2023-03-05T09:15:10;7.20;;;3.90;;
44452;SDS011;30155;52.164;21.236;2023-03-05T09:20:04;9.20;;;4.30;;
44452;SDS011;30155;52.164;21.236;2023-03-05T09:24:58;7.80;;;3.90;;
44452;SDS011;30155;52.164;21.236;2023-03-05T09:29:51;6.20;;;4.30;;
44452;SDS011;30155;52.164;21.236;2023-03-05T09:34:44;7.20;;;4.30;;
44452;SDS011;30155;52.164;21.236;2023-03-05T09:39:37;9.20;;;5.50;;
44452;SDS011;30155;52.164;21.236;2023-03-05T09:50:03;7.50;;;5.10;;
44452;SDS011;30155;52.164;21.236;2023-03-05T09:55:11;7.60;;;4.70;;
44452;SDS011;30155;52.164;21.236;2023-03-05T10:00:25;9.40;;;5.90;;
44452;SDS011;30155;52.164;21.236;2023-03-05T10:10:25;9.10;;;5.10;;
44452;SDS011;30155;52.164;21.236;2023-03-05T10:36:02;12.20;;;6.10;;
44452;SDS011;30155;52.164;21.236;2023-03-05T10:46:28;11.30;;;6.50;;
44452;SDS011;30155;52.164;21.236;2023-03-05T10:51:30;10.30;;;6.70;;
44452;SDS011;30155;52.164;21.236;2023-03-05T10:56:32;9.60;;;5.60;;
44452;SDS011;30155;52.164;21.236;2023-03-05T11:01:26;10.40;;;6.30;;
44452;SDS011;30155;52.164;21.236;2023-03-05T11:06:31;10.80;;;6.40;;
44452;SDS011;30155;52.164;21.236;2023-03-05T11:11:28;12.30;;;6.40;;
44452;SDS011;30155;52.164;21.236;2023-03-05T11:16:27;12.50;;;6.70;;
44452;SDS011;30155;52.164;21.236;2023-03-05T11:21:25;12.00;;;6.70;;
44452;SDS011;30155;52.164;21.236;2023-03-05T11:26:21;9.10;;;5.60;;
44452;SDS011;30155;52.164;21.236;2023-03-05T11:36:28;11.00;;;6.60;;
44452;SDS011;30155;52.164;21.236;2023-03-05T11:46:34;11.40;;;6.60;;
44452;SDS011;30155;52.164;21.236;2023-03-05T11:51:43;10.70;;;6.70;;
44452;SDS011;30155;52.164;21.236;2023-03-05T11:56:42;12.90;;;7.70;;
44452;SDS011;30155;52.164;21.236;2023-03-05T12:01:40;11.00;;;7.80;;
44452;SDS011;30155;52.164;21.236;2023-03-05T12:06:46;11.00;;;6.60;;
44452;SDS011;30155;52.164;21.236;2023-03-05T12:11:42;8.60;;;5.60;;
44452;SDS011;30155;52.164;21.236;2023-03-05T12:21:42;9.90;;;6.40;;
44452;SDS011;30155;52.164;21.236;2023-03-05T12:31:44;11.80;;;5.50;;
44452;SDS011;30155;52.164;21.236;2023-03-05T12:36:37;11.20;;;6.00;;
44452;SDS011;30155;52.164;21.236;2023-03-05T12:41:31;7.20;;;4.80;;
44452;SDS011;30155;52.164;21.236;2023-03-05T12:46:26;8.50;;;5.10;;
44452;SDS011;30155;52.164;21.236;2023-03-05T12:51:27;9.50;;;5.70;;
44452;SDS011;30155;52.164;21.236;2023-03-05T12:56:25;6.00;;;4.00;;
44452;SDS011;30155;52.164;21.236;2023-03-05T13:01:26;4.90;;;3.30;;
44452;SDS011;30155;52.164;21.236;2023-03-05T13:06:31;8.50;;;4.00;;
44452;SDS011;30155;52.164;21.236;2023-03-05T13:11:26;7.30;;;4.10;;
44452;SDS011;30155;52.164;21.236;2023-03-05T13:16:25;6.80;;;3.70;;
44452;SDS011;30155;52.164;21.236;2023-03-05T13:21:23;10.00;;;3.90;;
44452;SDS011;30155;52.164;21.236;2023-03-05T13:31:12;9.20;;;5.40;;
44452;SDS011;30155;52.164;21.236;2023-03-05T13:36:12;8.80;;;4.10;;
44452;SDS011;30155;52.164;21.236;2023-03-05T13:46:03;8.00;;;5.00;;
44452;SDS011;30155;52.164;21.236;2023-03-05T13:50:56;10.30;;;4.80;;
44452;SDS011;30155;52.164;21.236;2023-03-05T13:55:50;6.40;;;3.80;;
44452;SDS011;30155;52.164;21.236;2023-03-05T14:00:44;8.10;;;5.00;;
44452;SDS011;30155;52.164;21.236;2023-03-05T14:05:41;9.50;;;5.70;;
44452;SDS011;30155;52.164;21.236;2023-03-05T14:10:36;9.20;;;4.80;;
44452;SDS011;30155;52.164;21.236;2023-03-05T14:15:31;10.80;;;6.60;;
44452;SDS011;30155;52.164;21.236;2023-03-05T14:20:26;9.00;;;4.60;;
44452;SDS011;30155;52.164;21.236;2023-03-05T14:25:24;7.80;;;4.10;;
44452;SDS011;30155;52.164;21.236;2023-03-05T14:30:32;6.40;;;4.30;;
44452;SDS011;30155;52.164;21.236;2023-03-05T14:35:27;9.90;;;5.80;;
44452;SDS011;30155;52.164;21.236;2023-03-05T14:40:33;8.30;;;5.40;;
44452;SDS011;30155;52.164;21.236;2023-03-05T14:45:29;10.70;;;5.90;;
44452;SDS011;30155;52.164;21.236;2023-03-05T14:50:25;9.40;;;4.90;;
44452;SDS011;30155;52.164;21.236;2023-03-05T14:55:21;8.20;;;5.30;;
44452;SDS011;30155;52.164;21.236;2023-03-05T15:00:17;7.40;;;4.80;;
44452;SDS011;30155;52.164;21.236;2023-03-05T15:05:11;7.40;;;4.90;;
44452;SDS011;30155;52.164;21.236;2023-03-05T15:10:04;9.20;;;5.70;;
44452;SDS011;30155;52.164;21.236;2023-03-05T15:14:59;7.60;;;5.10;;
44452;SDS011;30155;52.164;21.236;2023-03-05T15:19:52;8.90;;;5.50;;
44452;SDS011;30155;52.164;21.236;2023-03-05T15:24:45;8.70;;;5.60;;
44452;SDS011;30155;52.164;21.236;2023-03-05T15:29:38;6.80;;;5.70;;
44452;SDS011;30155;52.164;21.236;2023-03-05T15:34:31;8.70;;;6.20;;
44452;SDS011;30155;52.164;21.236;2023-03-05T15:39:25;12.20;;;6.40;;
44452;SDS011;30155;52.164;21.236;2023-03-05T15:44:18;9.80;;;6.30;;
44452;SDS011;30155;52.164;21.236;2023-03-05T15:49:12;14.40;;;7.30;;
44452;SDS011;30155;52.164;21.236;2023-03-05T15:54:05;9.10;;;6.80;;
44452;SDS011;30155;52.164;21.236;2023-03-05T15:58:58;9.80;;;7.60;;
44452;SDS011;30155;52.164;21.236;2023-03-05T16:03:51;10.50;;;6.70;;
44452;SDS011;30155;52.164;21.236;2023-03-05T16:08:44;12.10;;;6.80;;
44452;SDS011;30155;52.164;21.236;2023-03-05T16:13:39;10.60;;;7.50;;
44452;SDS011;30155;52.164;21.236;2023-03-05T16:18:33;12.60;;;7.30;;
44452;SDS011;30155;52.164;21.236;2023-03-05T16:23:31;13.00;;;7.70;;
44452;SDS011;30155;52.164;21.236;2023-03-05T16:28:24;11.30;;;6.80;;
44452;SDS011;30155;52.164;21.236;2023-03-05T16:33:17;12.50;;;6.70;;
44452;SDS011;30155;52.164;21.236;2023-03-05T16:38:10;10.00;;;7.80;;
44452;SDS011;30155;52.164;21.236;2023-03-05T16:43:02;14.50;;;8.10;;
44452;SDS011;30155;52.164;21.236;2023-03-05T16:47:55;13.80;;;9.00;;
44452;SDS011;30155;52.164;21.236;2023-03-05T16:52:49;15.80;;;8.80;;
44452;SDS011;30155;52.164;21.236;2023-03-05T16:57:42;15.00;;;9.40;;
44452;SDS011;30155;52.164;21.236;2023-03-05T17:02:35;17.00;;;10.90;;
44452;SDS011;30155;52.164;21.236;2023-03-05T17:07:27;21.10;;;12.40;;
44452;SDS011;30155;52.164;21.236;2023-03-05T17:12:21;18.50;;;11.70;;
44452;SDS011;30155;52.164;21.236;2023-03-05T17:17:14;21.10;;;12.30;;
44452;SDS011;30155;52.164;21.236;2023-03-05T17:22:07;25.60;;;13.90;;
44452;SDS011;30155;52.164;21.236;2023-03-05T17:27:02;20.80;;;13.70;;
44452;SDS011;30155;52.164;21.236;2023-03-05T17:31:55;22.80;;;13.30;;
44452;SDS011;30155;52.164;21.236;2023-03-05T17:36:48;21.90;;;13.80;;
44452;SDS011;30155;52.164;21.236;2023-03-05T17:41:41;22.60;;;14.90;;
44452;SDS011;30155;52.164;21.236;2023-03-05T17:46:33;22.90;;;12.50;;
44452;SDS011;30155;52.164;21.236;2023-03-05T17:51:26;22.30;;;13.30;;
44452;SDS011;30155;52.164;21.236;2023-03-05T17:56:19;24.60;;;16.40;;
44452;SDS011;30155;52.164;21.236;2023-03-05T18:01:20;21.00;;;13.90;;
44452;SDS011;30155;52.164;21.236;2023-03-05T18:06:23;25.60;;;15.20;;
44452;SDS011;30155;52.164;21.236;2023-03-05T18:11:16;26.70;;;16.20;;
44452;SDS011;30155;52.164;21.236;2023-03-05T18:16:09;24.60;;;15.50;;
44452;SDS011;30155;52.164;21.236;2023-03-05T18:21:04;22.10;;;14.70;;
44452;SDS011;30155;52.164;21.236;2023-03-05T18:25:57;28.00;;;16.90;;
44452;SDS011;30155;52.164;21.236;2023-03-05T18:30:50;26.60;;;15.10;;
44452;SDS011;30155;52.164;21.236;2023-03-05T18:35:43;24.20;;;16.70;;
44452;SDS011;30155;52.164;21.236;2023-03-05T18:40:36;28.60;;;16.60;;
44452;SDS011;30155;52.164;21.236;2023-03-05T18:45:31;33.30;;;18.30;;
44452;SDS011;30155;52.164;21.236;2023-03-05T18:50:25;28.40;;;16.90;;
44452;SDS011;30155;52.164;21.236;2023-03-05T18:55:20;27.30;;;16.90;;
44452;SDS011;30155;52.164;21.236;2023-03-05T19:00:17;29.90;;;17.60;;
44452;SDS011;30155;52.164;21.236;2023-03-05T19:05:15;29.10;;;18.10;;
44452;SDS011;30155;52.164;21.236;2023-03-05T19:10:09;28.00;;;16.40;;
44452;SDS011;30155;52.164;21.236;2023-03-05T19:15:04;23.80;;;15.80;;
44452;SDS011;30155;52.164;21.236;2023-03-05T19:19:58;31.50;;;16.20;;
44452;SDS011;30155;52.164;21.236;2023-03-05T19:24:51;28.30;;;16.70;;
44452;SDS011;30155;52.164;21.236;2023-03-05T19:29:44;32.90;;;18.20;;
44452;SDS011;30155;52.164;21.236;2023-03-05T19:34:37;28.60;;;17.90;;
44452;SDS011;30155;52.164;21.236;2023-03-05T19:39:30;30.60;;;18.40;;
44452;SDS011;30155;52.164;21.236;2023-03-05T19:44:23;29.70;;;18.30;;
44452;SDS011;30155;52.164;21.236;2023-03-05T19:49:17;27.50;;;17.80;;
44452;SDS011;30155;52.164;21.236;2023-03-05T19:54:12;27.00;;;17.80;;
44452;SDS011;30155;52.164;21.236;2023-03-05T19:59:06;30.70;;;17.00;;
44452;SDS011;30155;52.164;21.236;2023-03-05T20:04:00;27.30;;;16.80;;
44452;SDS011;30155;52.164;21.236;2023-03-05T20:08:56;29.40;;;17.30;;
44452;SDS011;30155;52.164;21.236;2023-03-05T20:13:50;31.20;;;17.40;;
44452;SDS011;30155;52.164;21.236;2023-03-05T20:18:44;29.00;;;17.10;;
44452;SDS011;30155;52.164;21.236;2023-03-05T20:23:38;30.30;;;18.40;;
44452;SDS011;30155;52.164;21.236;2023-03-05T20:28:31;29.60;;;17.40;;
44452;SDS011;30155;52.164;21.236;2023-03-05T20:33:25;30.70;;;17.20;;
44452;SDS011;30155;52.164;21.236;2023-03-05T20:38:20;25.60;;;14.30;;
44452;SDS011;30155;52.164;21.236;2023-03-05T20:43:16;35.00;;;19.30;;
44452;SDS011;30155;52.164;21.236;2023-03-05T20:48:10;28.90;;;17.90;;
44452;SDS011;30155;52.164;21.236;2023-03-05T20:53:03;34.30;;;21.30;;
44452;SDS011;30155;52.164;21.236;2023-03-05T20:57:57;32.00;;;20.40;;
44452;SDS011;30155;52.164;21.236;2023-03-05T21:02:50;30.60;;;19.60;;
44452;SDS011;30155;52.164;21.236;2023-03-05T21:07:45;43.40;;;22.60;;
44452;SDS011;30155;52.164;21.236;2023-03-05T21:12:38;35.90;;;22.90;;
44452;SDS011;30155;52.164;21.236;2023-03-05T21:17:31;35.90;;;20.10;;
44452;SDS011;30155;52.164;21.236;2023-03-05T21:22:24;35.90;;;21.70;;
44452;SDS011;30155;52.164;21.236;2023-03-05T21:27:17;36.00;;;21.10;;
44452;SDS011;30155;52.164;21.236;2023-03-05T21:32:10;36.60;;;21.70;;
44452;SDS011;30155;52.164;21.236;2023-03-05T21:37:03;36.40;;;22.40;;
44452;SDS011;30155;52.164;21.236;2023-03-05T21:41:55;33.10;;;21.50;;
44452;SDS011;30155;52.164;21.236;2023-03-05T21:46:48;37.00;;;23.00;;
44452;SDS011;30155;52.164;21.236;2023-03-05T21:51:41;36.60;;;22.20;;
44452;SDS011;30155;52.164;21.236;2023-03-05T21:56:47;45.10;;;24.20;;
44452;SDS011;30155;52.164;21.236;2023-03-05T22:01:40;50.00;;;26.00;;
44452;SDS011;30155;52.164;21.236;2023-03-05T22:06:32;39.90;;;23.40;;
44452;SDS011;30155;52.164;21.236;2023-03-05T22:11:25;41.10;;;25.20;;
44452;SDS011;30155;52.164;21.236;2023-03-05T22:16:24;49.60;;;25.30;;
44452;SDS011;30155;52.164;21.236;2023-03-05T22:21:20;38.40;;;24.50;;
44452;SDS011;30155;52.164;21.236;2023-03-05T22:26:16;45.80;;;24.50;;
44452;SDS011;30155;52.164;21.236;2023-03-05T22:31:09;36.90;;;23.70;;
44452;SDS011;30155;52.164;21.236;2023-03-05T22:36:06;42.10;;;24.00;;
44452;SDS011;30155;52.164;21.236;2023-03-05T22:41:00;37.90;;;23.90;;
44452;SDS011;30155;52.164;21.236;2023-03-05T22:45:53;48.40;;;27.20;;
44452;SDS011;30155;52.164;21.236;2023-03-05T22:50:53;40.00;;;23.80;;
44452;SDS011;30155;52.164;21.236;2023-03-05T22:55:46;37.50;;;23.30;;
44452;SDS011;30155;52.164;21.236;2023-03-05T23:00:39;41.10;;;23.80;;
44452;SDS011;30155;52.164;21.236;2023-03-05T23:05:36;42.00;;;22.90;;
44452;SDS011;30155;52.164;21.236;2023-03-05T23:10:30;45.30;;;26.10;;
44452;SDS011;30155;52.164;21.236;2023-03-05T23:15:27;41.30;;;23.40;;
44452;SDS011;30155;52.164;21.236;2023-03-05T23:20:23;43.70;;;25.50;;
44452;SDS011;30155;52.164;21.236;2023-03-05T23:25:18;43.80;;;24.20;;
44452;SDS011;30155;52.164;21.236;2023-03-05T23:30:18;48.20;;;25.10;;
44452;SDS011;30155;52.164;21.236;2023-03-05T23:35:13;39.00;;;21.70;;
44452;SDS011;30155;52.164;21.236;2023-03-05T23:40:11;44.70;;;24.30;;
44452;SDS011;30155;52.164;21.236;2023-03-05T23:45:08;38.10;;;22.90;;
44452;SDS011;30155;52.164;21.236;2023-03-05T23:50:03;43.30;;;21.50;;
44452;SDS011;30155;52.164;21.236;2023-03-05T23:54:57;36.00;;;21.70;;
44452;SDS011;30155;52.164;21.236;2023-03-05T23:59:50;38.30;;;22.50;;
